New Bedford, MA

9:56 AM EDT on August 04, 2015 (GMT -0400)
Peedee's Weather | | Change Station
CLOSE
Current Station
Personal Weather Station
Location: New Bedford, MA
Elevation: 130 ft
Nearby Weather Stations

Elev 130 ft 41.65 °N, 70.94 °W | Updated 9 minutes ago

Partly Cloudy
Partly Cloudy
75.9 °F
Feels Like 77 °F
N
1.1
Wind Variable Wind from ESE

Today
High -- | Low -- °F
--% Chance of Precip.
Yesterday
High -- | Low -- °F
Precip. -- in
5:40 AM 7:58 PM
Waning Gibbous, 77% visible
Pressure 29.86 in
Visibility 10.0 miles
Clouds Clear
Heat Index 77 °F
Dew Point 69 °F
Humidity 80%
Rainfall 0.66 in
Snow Depth Not available.
UV 7 out of 12
Pollen 7.30 out of 12
Air Quality Not available.
Flu Activity Not available.
METAR KEWB 041353Z 22009KT 10SM CLR 24/19 A2986 RMK AO2 SLP110 T02440194

More Conditions Fewer Conditions

Pressure 29.86 in
Visibility 10.0 miles
Clouds Clear
Heat Index 77 °F
Dew Point 69 °F
Humidity 80%
Rainfall 0.66 in
Snow Depth Not available.
UV 7 out of 12
Pollen 7.30 out of 12
Air Quality Not available.
Flu Activity Not available.
METAR KEWB 041353Z 22009KT 10SM CLR 24/19 A2986 RMK AO2 SLP110 T02440194

More Conditions Fewer Conditions

10-Day Weather Forecast

×

Almanac

Astronomy

Aug. 04, 2015 Rise Set
Actual Time
Civil Twilight
Nautical Twilight
Astronomical Twilight
Moon
Length of Visible Light
Length of Day
Tomorrow will be .
, % of the Moon is Illuminated

Today's Extremes

State Highs State Lows

Community

WunderPhotos

Upload Photos

1,843,912 photos uploaded!

WunderBlogs® & News

Nearby

Air Quality

  Air Quality AQ Index Pollutant
Not available.

Snow Depth

Station Depth Elevation

Earthquake Activity

City Distance Mag. Time & Date
Minimum magnitude displayed is 2.5.

Coastal Water Temperatures

Place Temperature

Stations

Nearby Weather Stations

Station Location Temp. Windchill Dew Point Humidity Wind Precip. Elev Updated Type